sensor_id;sensor_type;location;lat;lon;timestamp;temperature;humidity
14099;DHT22;7126;48.458;7.930;2022-10-16T00:01:16;16.40;99.90
14099;DHT22;7126;48.458;7.930;2022-10-16T00:03:43;16.40;99.90
14099;DHT22;7126;48.458;7.930;2022-10-16T00:06:10;16.40;99.90
14099;DHT22;7126;48.458;7.930;2022-10-16T00:08:37;16.40;99.90
14099;DHT22;7126;48.458;7.930;2022-10-16T00:11:05;16.40;99.90
14099;DHT22;7126;48.458;7.930;2022-10-16T00:13:32;16.40;99.90
14099;DHT22;7126;48.458;7.930;2022-10-16T00:15:59;16.40;99.90
14099;DHT22;7126;48.458;7.930;2022-10-16T00:18:26;16.40;99.90
14099;DHT22;7126;48.458;7.930;2022-10-16T00:20:52;16.40;99.90
14099;DHT22;7126;48.458;7.930;2022-10-16T00:23:18;16.30;99.90
14099;DHT22;7126;48.458;7.930;2022-10-16T00:25:43;16.40;99.90
14099;DHT22;7126;48.458;7.930;2022-10-16T00:28:09;16.30;99.90
14099;DHT22;7126;48.458;7.930;2022-10-16T00:30:38;16.30;99.90
14099;DHT22;7126;48.458;7.930;2022-10-16T00:33:03;16.30;99.90
14099;DHT22;7126;48.458;7.930;2022-10-16T00:35:30;16.30;99.90
14099;DHT22;7126;48.458;7.930;2022-10-16T00:37:55;16.30;99.90
14099;DHT22;7126;48.458;7.930;2022-10-16T00:40:21;16.30;99.90
14099;DHT22;7126;48.458;7.930;2022-10-16T00:42:47;16.30;99.90
14099;DHT22;7126;48.458;7.930;2022-10-16T00:45:12;16.30;99.90
14099;DHT22;7126;48.458;7.930;2022-10-16T00:47:43;16.30;99.90
14099;DHT22;7126;48.458;7.930;2022-10-16T00:50:34;16.20;99.90
14099;DHT22;7126;48.458;7.930;2022-10-16T00:53:00;16.20;99.90
14099;DHT22;7126;48.458;7.930;2022-10-16T00:55:27;16.20;99.90
14099;DHT22;7126;48.458;7.930;2022-10-16T00:57:55;16.20;99.90
14099;DHT22;7126;48.458;7.930;2022-10-16T01:00:25;16.20;99.90
14099;DHT22;7126;48.458;7.930;2022-10-16T01:02:54;16.20;99.90
14099;DHT22;7126;48.458;7.930;2022-10-16T01:05:22;16.30;99.90
14099;DHT22;7126;48.458;7.930;2022-10-16T01:08:08;16.30;99.90
14099;DHT22;7126;48.458;7.930;2022-10-16T01:10:52;16.30;99.90
14099;DHT22;7126;48.458;7.930;2022-10-16T01:13:31;16.30;99.90
14099;DHT22;7126;48.458;7.930;2022-10-16T01:18:37;16.20;99.90
14099;DHT22;7126;48.458;7.930;2022-10-16T01:21:10;16.20;99.90
14099;DHT22;7126;48.458;7.930;2022-10-16T01:29:11;16.20;99.90
14099;DHT22;7126;48.458;7.930;2022-10-16T01:31:40;16.30;99.90
14099;DHT22;7126;48.458;7.930;2022-10-16T01:34:16;16.20;99.90
14099;DHT22;7126;48.458;7.930;2022-10-16T01:37:05;16.20;99.90
14099;DHT22;7126;48.458;7.930;2022-10-16T01:39:34;16.20;99.90
14099;DHT22;7126;48.458;7.930;2022-10-16T01:42:20;16.20;99.90
14099;DHT22;7126;48.458;7.930;2022-10-16T01:44:47;16.20;99.90
14099;DHT22;7126;48.458;7.930;2022-10-16T01:47:15;16.20;99.90
14099;DHT22;7126;48.458;7.930;2022-10-16T01:49:41;16.20;99.90
14099;DHT22;7126;48.458;7.930;2022-10-16T01:52:12;16.20;99.90
14099;DHT22;7126;48.458;7.930;2022-10-16T01:54:42;16.20;99.90
14099;DHT22;7126;48.458;7.930;2022-10-16T01:57:10;16.10;99.90
14099;DHT22;7126;48.458;7.930;2022-10-16T01:59:43;16.20;99.90
14099;DHT22;7126;48.458;7.930;2022-10-16T02:02:11;16.20;99.90
14099;DHT22;7126;48.458;7.930;2022-10-16T02:04:45;16.20;99.90
14099;DHT22;7126;48.458;7.930;2022-10-16T02:07:11;16.10;99.90
14099;DHT22;7126;48.458;7.930;2022-10-16T02:09:38;16.10;99.90
14099;DHT22;7126;48.458;7.930;2022-10-16T02:12:13;16.00;99.90
14099;DHT22;7126;48.458;7.930;2022-10-16T02:14:40;16.10;99.90
14099;DHT22;7126;48.458;7.930;2022-10-16T02:17:15;16.10;99.90
14099;DHT22;7126;48.458;7.930;2022-10-16T02:19:42;16.00;99.90
14099;DHT22;7126;48.458;7.930;2022-10-16T02:22:15;16.00;99.90
14099;DHT22;7126;48.458;7.930;2022-10-16T02:27:34;16.00;99.90
14099;DHT22;7126;48.458;7.930;2022-10-16T02:30:21;16.00;99.90
14099;DHT22;7126;48.458;7.930;2022-10-16T02:32:49;16.10;99.90
14099;DHT22;7126;48.458;7.930;2022-10-16T02:35:18;16.10;99.90
14099;DHT22;7126;48.458;7.930;2022-10-16T02:37:45;16.10;99.90
14099;DHT22;7126;48.458;7.930;2022-10-16T02:40:11;16.10;99.90
14099;DHT22;7126;48.458;7.930;2022-10-16T02:42:38;16.10;99.90
14099;DHT22;7126;48.458;7.930;2022-10-16T02:45:06;16.10;99.90
14099;DHT22;7126;48.458;7.930;2022-10-16T02:47:32;16.20;99.90
14099;DHT22;7126;48.458;7.930;2022-10-16T02:49:57;16.10;99.90
14099;DHT22;7126;48.458;7.930;2022-10-16T02:52:23;16.20;99.90
14099;DHT22;7126;48.458;7.930;2022-10-16T02:54:48;16.20;99.90
14099;DHT22;7126;48.458;7.930;2022-10-16T02:57:14;16.10;99.90
14099;DHT22;7126;48.458;7.930;2022-10-16T02:59:40;16.10;99.90
14099;DHT22;7126;48.458;7.930;2022-10-16T03:02:05;16.10;99.90
14099;DHT22;7126;48.458;7.930;2022-10-16T03:04:31;16.10;99.90
14099;DHT22;7126;48.458;7.930;2022-10-16T03:06:56;16.10;99.90
14099;DHT22;7126;48.458;7.930;2022-10-16T03:09:22;16.10;99.90
14099;DHT22;7126;48.458;7.930;2022-10-16T03:11:47;16.10;99.90
14099;DHT22;7126;48.458;7.930;2022-10-16T03:14:13;16.10;99.90
14099;DHT22;7126;48.458;7.930;2022-10-16T03:16:38;16.10;99.90
14099;DHT22;7126;48.458;7.930;2022-10-16T03:19:04;16.10;99.90
14099;DHT22;7126;48.458;7.930;2022-10-16T03:21:29;16.10;99.90
14099;DHT22;7126;48.458;7.930;2022-10-16T03:23:55;16.00;99.90
14099;DHT22;7126;48.458;7.930;2022-10-16T03:26:21;16.00;99.90
14099;DHT22;7126;48.458;7.930;2022-10-16T03:28:46;16.00;99.90
14099;DHT22;7126;48.458;7.930;2022-10-16T03:31:12;16.00;99.90
14099;DHT22;7126;48.458;7.930;2022-10-16T03:33:37;16.00;99.90
14099;DHT22;7126;48.458;7.930;2022-10-16T03:36:03;16.00;99.90
14099;DHT22;7126;48.458;7.930;2022-10-16T03:38:29;16.00;99.90
14099;DHT22;7126;48.458;7.930;2022-10-16T03:40:54;16.00;99.90
14099;DHT22;7126;48.458;7.930;2022-10-16T03:43:20;15.90;99.90
14099;DHT22;7126;48.458;7.930;2022-10-16T03:45:45;15.90;99.90
14099;DHT22;7126;48.458;7.930;2022-10-16T03:48:11;15.90;99.90
14099;DHT22;7126;48.458;7.930;2022-10-16T03:50:37;15.90;99.90
14099;DHT22;7126;48.458;7.930;2022-10-16T03:53:02;15.90;99.90
14099;DHT22;7126;48.458;7.930;2022-10-16T03:55:28;15.90;99.90
14099;DHT22;7126;48.458;7.930;2022-10-16T03:57:54;15.90;99.90
14099;DHT22;7126;48.458;7.930;2022-10-16T04:00:19;15.90;99.90
14099;DHT22;7126;48.458;7.930;2022-10-16T04:02:45;15.90;99.90
14099;DHT22;7126;48.458;7.930;2022-10-16T04:05:10;15.80;99.90
14099;DHT22;7126;48.458;7.930;2022-10-16T04:07:36;15.80;99.90
14099;DHT22;7126;48.458;7.930;2022-10-16T04:10:02;15.80;99.90
14099;DHT22;7126;48.458;7.930;2022-10-16T04:12:28;15.80;99.90
14099;DHT22;7126;48.458;7.930;2022-10-16T04:14:53;15.80;99.90
14099;DHT22;7126;48.458;7.930;2022-10-16T04:17:19;15.80;99.90
14099;DHT22;7126;48.458;7.930;2022-10-16T04:19:44;15.80;99.90
14099;DHT22;7126;48.458;7.930;2022-10-16T04:22:11;15.80;99.90
14099;DHT22;7126;48.458;7.930;2022-10-16T04:24:36;15.90;99.90
14099;DHT22;7126;48.458;7.930;2022-10-16T04:27:02;15.90;99.90
14099;DHT22;7126;48.458;7.930;2022-10-16T04:29:28;15.80;99.90
14099;DHT22;7126;48.458;7.930;2022-10-16T04:31:53;15.80;99.90
14099;DHT22;7126;48.458;7.930;2022-10-16T04:34:19;15.80;99.90
14099;DHT22;7126;48.458;7.930;2022-10-16T04:36:47;15.80;99.90
14099;DHT22;7126;48.458;7.930;2022-10-16T04:39:14;15.80;99.90
14099;DHT22;7126;48.458;7.930;2022-10-16T04:41:40;15.80;99.90
14099;DHT22;7126;48.458;7.930;2022-10-16T04:44:06;15.80;99.90
14099;DHT22;7126;48.458;7.930;2022-10-16T04:46:31;15.90;99.90
14099;DHT22;7126;48.458;7.930;2022-10-16T04:48:57;15.90;99.90
14099;DHT22;7126;48.458;7.930;2022-10-16T04:51:23;15.90;99.90
14099;DHT22;7126;48.458;7.930;2022-10-16T04:53:48;15.90;99.90
14099;DHT22;7126;48.458;7.930;2022-10-16T04:56:14;15.90;99.90
14099;DHT22;7126;48.458;7.930;2022-10-16T04:58:40;15.90;99.90
14099;DHT22;7126;48.458;7.930;2022-10-16T05:01:06;16.00;99.90
14099;DHT22;7126;48.458;7.930;2022-10-16T05:03:31;16.00;99.90
14099;DHT22;7126;48.458;7.930;2022-10-16T05:05:57;15.90;99.90
14099;DHT22;7126;48.458;7.930;2022-10-16T05:08:22;15.90;99.90
14099;DHT22;7126;48.458;7.930;2022-10-16T05:10:48;15.90;99.90
14099;DHT22;7126;48.458;7.930;2022-10-16T05:13:14;15.90;99.90
14099;DHT22;7126;48.458;7.930;2022-10-16T05:15:39;15.90;99.90
14099;DHT22;7126;48.458;7.930;2022-10-16T05:18:05;15.90;99.90
14099;DHT22;7126;48.458;7.930;2022-10-16T05:20:30;15.90;99.90
14099;DHT22;7126;48.458;7.930;2022-10-16T05:22:56;15.90;99.90
14099;DHT22;7126;48.458;7.930;2022-10-16T05:25:22;15.80;99.90
14099;DHT22;7126;48.458;7.930;2022-10-16T05:27:48;15.80;99.90
14099;DHT22;7126;48.458;7.930;2022-10-16T05:30:14;15.80;99.90
14099;DHT22;7126;48.458;7.930;2022-10-16T05:32:39;15.80;99.90
14099;DHT22;7126;48.458;7.930;2022-10-16T05:35:05;15.70;99.90
14099;DHT22;7126;48.458;7.930;2022-10-16T05:37:31;15.80;99.90
14099;DHT22;7126;48.458;7.930;2022-10-16T05:39:56;15.70;99.90
14099;DHT22;7126;48.458;7.930;2022-10-16T05:42:22;15.70;99.90
14099;DHT22;7126;48.458;7.930;2022-10-16T05:44:47;15.70;99.90
14099;DHT22;7126;48.458;7.930;2022-10-16T05:47:13;15.70;99.90
14099;DHT22;7126;48.458;7.930;2022-10-16T05:49:39;15.60;99.90
14099;DHT22;7126;48.458;7.930;2022-10-16T05:52:05;15.70;99.90
14099;DHT22;7126;48.458;7.930;2022-10-16T05:54:31;15.70;99.90
14099;DHT22;7126;48.458;7.930;2022-10-16T05:56:56;15.80;99.90
14099;DHT22;7126;48.458;7.930;2022-10-16T05:59:22;15.80;99.90
14099;DHT22;7126;48.458;7.930;2022-10-16T06:01:47;15.80;99.90
14099;DHT22;7126;48.458;7.930;2022-10-16T06:04:13;15.80;99.90
14099;DHT22;7126;48.458;7.930;2022-10-16T06:06:38;15.80;99.90
14099;DHT22;7126;48.458;7.930;2022-10-16T06:09:04;15.80;99.90
14099;DHT22;7126;48.458;7.930;2022-10-16T06:11:31;15.80;99.90
14099;DHT22;7126;48.458;7.930;2022-10-16T06:13:59;15.80;99.90
14099;DHT22;7126;48.458;7.930;2022-10-16T06:16:27;15.80;99.90
14099;DHT22;7126;48.458;7.930;2022-10-16T06:18:54;15.80;99.90
14099;DHT22;7126;48.458;7.930;2022-10-16T06:21:26;15.80;99.90
14099;DHT22;7126;48.458;7.930;2022-10-16T06:23:52;15.80;99.90
14099;DHT22;7126;48.458;7.930;2022-10-16T06:26:21;15.80;99.90
14099;DHT22;7126;48.458;7.930;2022-10-16T06:28:47;15.80;99.90
14099;DHT22;7126;48.458;7.930;2022-10-16T06:31:13;15.90;99.90
14099;DHT22;7126;48.458;7.930;2022-10-16T06:33:40;15.90;99.90
14099;DHT22;7126;48.458;7.930;2022-10-16T06:36:13;15.90;99.90
14099;DHT22;7126;48.458;7.930;2022-10-16T06:38:40;15.90;99.90
14099;DHT22;7126;48.458;7.930;2022-10-16T06:41:06;15.90;99.90
14099;DHT22;7126;48.458;7.930;2022-10-16T06:43:33;16.00;99.90
14099;DHT22;7126;48.458;7.930;2022-10-16T06:46:01;16.00;99.90
14099;DHT22;7126;48.458;7.930;2022-10-16T06:48:28;16.00;99.90
14099;DHT22;7126;48.458;7.930;2022-10-16T06:51:00;16.00;99.90
14099;DHT22;7126;48.458;7.930;2022-10-16T06:53:28;16.00;99.90
14099;DHT22;7126;48.458;7.930;2022-10-16T06:55:54;16.00;99.90
14099;DHT22;7126;48.458;7.930;2022-10-16T06:58:20;16.00;99.90
14099;DHT22;7126;48.458;7.930;2022-10-16T07:00:46;16.00;99.90
14099;DHT22;7126;48.458;7.930;2022-10-16T07:03:12;16.00;99.90
14099;DHT22;7126;48.458;7.930;2022-10-16T07:05:41;16.00;99.90
14099;DHT22;7126;48.458;7.930;2022-10-16T07:08:08;16.10;99.90
14099;DHT22;7126;48.458;7.930;2022-10-16T07:10:34;16.10;99.90
14099;DHT22;7126;48.458;7.930;2022-10-16T07:12:59;16.10;99.90
14099;DHT22;7126;48.458;7.930;2022-10-16T07:15:25;16.10;99.90
14099;DHT22;7126;48.458;7.930;2022-10-16T07:17:51;16.10;99.90
14099;DHT22;7126;48.458;7.930;2022-10-16T07:20:17;16.10;99.90
14099;DHT22;7126;48.458;7.930;2022-10-16T07:22:43;16.10;99.90
14099;DHT22;7126;48.458;7.930;2022-10-16T07:25:08;16.10;99.90
14099;DHT22;7126;48.458;7.930;2022-10-16T07:27:34;16.10;99.90
14099;DHT22;7126;48.458;7.930;2022-10-16T07:30:00;16.20;99.90
14099;DHT22;7126;48.458;7.930;2022-10-16T07:32:26;16.20;99.90
14099;DHT22;7126;48.458;7.930;2022-10-16T07:34:52;16.20;99.90
14099;DHT22;7126;48.458;7.930;2022-10-16T07:37:18;16.20;99.90
14099;DHT22;7126;48.458;7.930;2022-10-16T07:39:43;16.20;99.90
14099;DHT22;7126;48.458;7.930;2022-10-16T07:42:09;16.20;99.90
14099;DHT22;7126;48.458;7.930;2022-10-16T07:44:34;16.10;99.90
14099;DHT22;7126;48.458;7.930;2022-10-16T07:47:00;16.10;99.90
14099;DHT22;7126;48.458;7.930;2022-10-16T07:49:25;16.10;99.90
14099;DHT22;7126;48.458;7.930;2022-10-16T07:51:51;16.10;99.90
14099;DHT22;7126;48.458;7.930;2022-10-16T07:54:16;16.20;99.90
14099;DHT22;7126;48.458;7.930;2022-10-16T07:56:42;16.20;99.90
14099;DHT22;7126;48.458;7.930;2022-10-16T07:59:08;16.20;99.90
14099;DHT22;7126;48.458;7.930;2022-10-16T08:01:33;16.30;99.90
14099;DHT22;7126;48.458;7.930;2022-10-16T08:03:59;16.30;99.90
14099;DHT22;7126;48.458;7.930;2022-10-16T08:06:24;16.30;99.90
14099;DHT22;7126;48.458;7.930;2022-10-16T08:08:50;16.40;99.90
14099;DHT22;7126;48.458;7.930;2022-10-16T08:11:16;16.40;99.90
14099;DHT22;7126;48.458;7.930;2022-10-16T08:13:42;16.40;99.90
14099;DHT22;7126;48.458;7.930;2022-10-16T08:16:07;16.50;99.90
14099;DHT22;7126;48.458;7.930;2022-10-16T08:18:35;16.50;99.90
14099;DHT22;7126;48.458;7.930;2022-10-16T08:21:01;16.60;99.90
14099;DHT22;7126;48.458;7.930;2022-10-16T08:23:28;16.60;99.90
14099;DHT22;7126;48.458;7.930;2022-10-16T08:25:54;16.60;99.90
14099;DHT22;7126;48.458;7.930;2022-10-16T08:28:21;16.60;99.90
14099;DHT22;7126;48.458;7.930;2022-10-16T08:30:47;16.70;99.90
14099;DHT22;7126;48.458;7.930;2022-10-16T08:33:13;16.70;99.90
14099;DHT22;7126;48.458;7.930;2022-10-16T08:35:39;16.70;99.90
14099;DHT22;7126;48.458;7.930;2022-10-16T08:38:05;16.70;99.90
14099;DHT22;7126;48.458;7.930;2022-10-16T08:40:33;16.70;99.90
14099;DHT22;7126;48.458;7.930;2022-10-16T08:51:08;17.00;99.90
14099;DHT22;7126;48.458;7.930;2022-10-16T08:53:46;17.10;99.90
14099;DHT22;7126;48.458;7.930;2022-10-16T08:56:13;17.20;99.90
14099;DHT22;7126;48.458;7.930;2022-10-16T08:58:39;17.20;99.90
14099;DHT22;7126;48.458;7.930;2022-10-16T09:01:12;17.30;99.90
14099;DHT22;7126;48.458;7.930;2022-10-16T09:06:57;17.70;99.90
14099;DHT22;7126;48.458;7.930;2022-10-16T09:18:09;18.30;99.90
14099;DHT22;7126;48.458;7.930;2022-10-16T09:23:26;18.80;99.90
14099;DHT22;7126;48.458;7.930;2022-10-16T09:25:53;19.00;99.90
14099;DHT22;7126;48.458;7.930;2022-10-16T09:28:19;19.10;99.90
14099;DHT22;7126;48.458;7.930;2022-10-16T09:30:45;19.10;99.90
14099;DHT22;7126;48.458;7.930;2022-10-16T09:33:12;19.10;99.90
14099;DHT22;7126;48.458;7.930;2022-10-16T09:35:47;19.00;99.90
14099;DHT22;7126;48.458;7.930;2022-10-16T09:38:26;19.00;99.90
14099;DHT22;7126;48.458;7.930;2022-10-16T09:40:52;18.90;99.90
14099;DHT22;7126;48.458;7.930;2022-10-16T09:43:41;18.90;99.90
14099;DHT22;7126;48.458;7.930;2022-10-16T09:46:19;18.90;99.90
14099;DHT22;7126;48.458;7.930;2022-10-16T09:48:50;18.80;99.90
14099;DHT22;7126;48.458;7.930;2022-10-16T09:51:26;18.90;99.90
14099;DHT22;7126;48.458;7.930;2022-10-16T09:54:01;18.80;99.90
14099;DHT22;7126;48.458;7.930;2022-10-16T09:56:32;18.80;99.90
14099;DHT22;7126;48.458;7.930;2022-10-16T09:59:03;18.90;99.90
14099;DHT22;7126;48.458;7.930;2022-10-16T10:01:41;18.80;99.90
14099;DHT22;7126;48.458;7.930;2022-10-16T10:04:08;18.80;99.90
14099;DHT22;7126;48.458;7.930;2022-10-16T10:11:50;18.90;99.90
14099;DHT22;7126;48.458;7.930;2022-10-16T10:14:41;18.90;99.90
14099;DHT22;7126;48.458;7.930;2022-10-16T10:17:27;19.00;99.90
14099;DHT22;7126;48.458;7.930;2022-10-16T10:24:56;19.20;99.90
14099;DHT22;7126;48.458;7.930;2022-10-16T10:27:28;19.20;99.90
14099;DHT22;7126;48.458;7.930;2022-10-16T10:30:10;19.30;99.90
14099;DHT22;7126;48.458;7.930;2022-10-16T10:33:01;19.30;99.90
14099;DHT22;7126;48.458;7.930;2022-10-16T10:35:45;19.30;99.90
14099;DHT22;7126;48.458;7.930;2022-10-16T10:44:16;19.50;99.90
14099;DHT22;7126;48.458;7.930;2022-10-16T10:49:54;19.60;99.90
14099;DHT22;7126;48.458;7.930;2022-10-16T11:00:38;19.70;99.90
14099;DHT22;7126;48.458;7.930;2022-10-16T11:06:00;19.70;99.90
14099;DHT22;7126;48.458;7.930;2022-10-16T11:08:39;19.70;99.90
14099;DHT22;7126;48.458;7.930;2022-10-16T11:11:09;19.70;99.90
14099;DHT22;7126;48.458;7.930;2022-10-16T11:13:52;19.80;99.90
14099;DHT22;7126;48.458;7.930;2022-10-16T11:16:29;19.80;99.90
14099;DHT22;7126;48.458;7.930;2022-10-16T11:21:26;19.90;99.90
14099;DHT22;7126;48.458;7.930;2022-10-16T11:24:00;19.90;99.90
14099;DHT22;7126;48.458;7.930;2022-10-16T11:26:30;20.00;99.90
14099;DHT22;7126;48.458;7.930;2022-10-16T11:29:00;20.10;99.90
14099;DHT22;7126;48.458;7.930;2022-10-16T11:31:42;20.10;99.90
14099;DHT22;7126;48.458;7.930;2022-10-16T11:34:34;20.10;99.90
14099;DHT22;7126;48.458;7.930;2022-10-16T11:39:29;20.20;99.90
14099;DHT22;7126;48.458;7.930;2022-10-16T11:42:22;20.30;99.90
14099;DHT22;7126;48.458;7.930;2022-10-16T11:50:24;20.40;99.90
14099;DHT22;7126;48.458;7.930;2022-10-16T11:53:23;20.50;99.90
14099;DHT22;7126;48.458;7.930;2022-10-16T11:55:49;20.50;99.90
14099;DHT22;7126;48.458;7.930;2022-10-16T11:58:57;20.60;99.90
14099;DHT22;7126;48.458;7.930;2022-10-16T12:06:55;20.90;99.90
14099;DHT22;7126;48.458;7.930;2022-10-16T12:09:26;21.10;99.90
14099;DHT22;7126;48.458;7.930;2022-10-16T12:11:52;21.20;99.90
14099;DHT22;7126;48.458;7.930;2022-10-16T12:17:46;21.30;99.90
14099;DHT22;7126;48.458;7.930;2022-10-16T12:20:01;21.30;99.90
14099;DHT22;7126;48.458;7.930;2022-10-16T12:22:29;21.20;99.90
14099;DHT22;7126;48.458;7.930;2022-10-16T12:24:56;21.20;99.90
14099;DHT22;7126;48.458;7.930;2022-10-16T12:27:32;21.10;99.90
14099;DHT22;7126;48.458;7.930;2022-10-16T12:30:03;21.10;99.90
14099;DHT22;7126;48.458;7.930;2022-10-16T12:32:36;21.10;99.90
14099;DHT22;7126;48.458;7.930;2022-10-16T12:35:03;21.00;99.90
14099;DHT22;7126;48.458;7.930;2022-10-16T12:37:36;21.00;99.90
14099;DHT22;7126;48.458;7.930;2022-10-16T12:40:24;21.00;99.90
14099;DHT22;7126;48.458;7.930;2022-10-16T12:42:50;21.00;99.90
14099;DHT22;7126;48.458;7.930;2022-10-16T12:45:30;21.00;99.90
14099;DHT22;7126;48.458;7.930;2022-10-16T12:48:01;21.00;99.90
14099;DHT22;7126;48.458;7.930;2022-10-16T12:50:34;21.00;99.90
14099;DHT22;7126;48.458;7.930;2022-10-16T12:53:01;21.10;99.90
14099;DHT22;7126;48.458;7.930;2022-10-16T12:55:33;21.10;99.90
14099;DHT22;7126;48.458;7.930;2022-10-16T13:00:47;21.20;99.90
14099;DHT22;7126;48.458;7.930;2022-10-16T13:03:41;21.30;99.90
14099;DHT22;7126;48.458;7.930;2022-10-16T13:26:22;22.00;99.90
14099;DHT22;7126;48.458;7.930;2022-10-16T13:28:50;22.00;99.90
14099;DHT22;7126;48.458;7.930;2022-10-16T13:31:22;22.10;99.90
14099;DHT22;7126;48.458;7.930;2022-10-16T13:33:55;22.20;99.90
14099;DHT22;7126;48.458;7.930;2022-10-16T13:36:24;22.50;99.90
14099;DHT22;7126;48.458;7.930;2022-10-16T13:39:10;22.70;99.90
14099;DHT22;7126;48.458;7.930;2022-10-16T13:41:37;23.00;99.90
14099;DHT22;7126;48.458;7.930;2022-10-16T13:44:03;23.30;99.90
14099;DHT22;7126;48.458;7.930;2022-10-16T13:46:29;23.40;99.90
14099;DHT22;7126;48.458;7.930;2022-10-16T13:49:01;23.50;99.90
14099;DHT22;7126;48.458;7.930;2022-10-16T13:51:28;23.60;99.90
14099;DHT22;7126;48.458;7.930;2022-10-16T13:53:55;23.50;99.90
14099;DHT22;7126;48.458;7.930;2022-10-16T13:56:26;23.40;99.90
14099;DHT22;7126;48.458;7.930;2022-10-16T13:59:00;23.30;99.90
14099;DHT22;7126;48.458;7.930;2022-10-16T14:01:46;23.10;99.90
14099;DHT22;7126;48.458;7.930;2022-10-16T14:04:13;23.00;99.90
14099;DHT22;7126;48.458;7.930;2022-10-16T14:06:46;23.10;99.90
14099;DHT22;7126;48.458;7.930;2022-10-16T14:09:29;23.10;99.90
14099;DHT22;7126;48.458;7.930;2022-10-16T14:12:01;23.30;99.90
14099;DHT22;7126;48.458;7.930;2022-10-16T14:14:34;23.40;99.90
14099;DHT22;7126;48.458;7.930;2022-10-16T14:17:00;23.40;99.90
14099;DHT22;7126;48.458;7.930;2022-10-16T14:19:29;23.30;99.90
14099;DHT22;7126;48.458;7.930;2022-10-16T14:21:56;23.20;99.90
14099;DHT22;7126;48.458;7.930;2022-10-16T14:24:34;23.10;99.90
14099;DHT22;7126;48.458;7.930;2022-10-16T14:27:00;23.00;99.90
14099;DHT22;7126;48.458;7.930;2022-10-16T14:29:27;22.90;99.90
14099;DHT22;7126;48.458;7.930;2022-10-16T14:32:01;22.90;99.90
14099;DHT22;7126;48.458;7.930;2022-10-16T14:34:33;22.80;99.90
14099;DHT22;7126;48.458;7.930;2022-10-16T14:37:01;22.80;99.90
14099;DHT22;7126;48.458;7.930;2022-10-16T14:39:32;22.80;99.90
14099;DHT22;7126;48.458;7.930;2022-10-16T14:41:58;22.90;99.90
14099;DHT22;7126;48.458;7.930;2022-10-16T14:44:32;22.90;99.90
14099;DHT22;7126;48.458;7.930;2022-10-16T14:47:09;22.80;99.90
14099;DHT22;7126;48.458;7.930;2022-10-16T14:49:37;22.70;99.90
14099;DHT22;7126;48.458;7.930;2022-10-16T14:52:08;22.60;99.90
14099;DHT22;7126;48.458;7.930;2022-10-16T14:54:35;22.50;99.90
14099;DHT22;7126;48.458;7.930;2022-10-16T14:57:00;22.40;99.90
14099;DHT22;7126;48.458;7.930;2022-10-16T14:59:38;22.20;99.90
14099;DHT22;7126;48.458;7.930;2022-10-16T15:04:48;22.00;99.90
14099;DHT22;7126;48.458;7.930;2022-10-16T15:07:14;22.00;99.90
14099;DHT22;7126;48.458;7.930;2022-10-16T15:09:40;21.80;99.90
14099;DHT22;7126;48.458;7.930;2022-10-16T15:12:05;21.70;99.90
14099;DHT22;7126;48.458;7.930;2022-10-16T15:14:31;21.60;99.90
14099;DHT22;7126;48.458;7.930;2022-10-16T15:16:57;21.60;99.90
14099;DHT22;7126;48.458;7.930;2022-10-16T15:19:22;21.50;99.90
14099;DHT22;7126;48.458;7.930;2022-10-16T15:21:48;21.50;99.90
14099;DHT22;7126;48.458;7.930;2022-10-16T15:24:14;21.50;99.90
14099;DHT22;7126;48.458;7.930;2022-10-16T15:26:40;21.50;99.90
14099;DHT22;7126;48.458;7.930;2022-10-16T15:29:06;21.50;99.90
14099;DHT22;7126;48.458;7.930;2022-10-16T15:31:33;21.50;99.90
14099;DHT22;7126;48.458;7.930;2022-10-16T15:33:58;21.50;99.90
14099;DHT22;7126;48.458;7.930;2022-10-16T15:36:30;21.50;99.90
14099;DHT22;7126;48.458;7.930;2022-10-16T15:38:56;21.40;99.90
14099;DHT22;7126;48.458;7.930;2022-10-16T15:41:22;21.30;99.90
14099;DHT22;7126;48.458;7.930;2022-10-16T15:43:49;21.20;99.90
14099;DHT22;7126;48.458;7.930;2022-10-16T15:46:20;21.20;99.90
14099;DHT22;7126;48.458;7.930;2022-10-16T15:48:47;21.10;99.90
14099;DHT22;7126;48.458;7.930;2022-10-16T15:51:13;21.00;99.90
14099;DHT22;7126;48.458;7.930;2022-10-16T15:53:39;21.00;99.90
14099;DHT22;7126;48.458;7.930;2022-10-16T15:56:06;20.90;99.90
14099;DHT22;7126;48.458;7.930;2022-10-16T15:58:32;20.80;99.90
14099;DHT22;7126;48.458;7.930;2022-10-16T16:00:59;20.80;99.90
14099;DHT22;7126;48.458;7.930;2022-10-16T16:03:32;20.80;99.90
14099;DHT22;7126;48.458;7.930;2022-10-16T16:06:03;20.70;99.90
14099;DHT22;7126;48.458;7.930;2022-10-16T16:08:28;20.70;99.90
14099;DHT22;7126;48.458;7.930;2022-10-16T16:11:06;20.60;99.90
14099;DHT22;7126;48.458;7.930;2022-10-16T16:13:32;20.60;99.90
14099;DHT22;7126;48.458;7.930;2022-10-16T16:15:58;20.50;99.90
14099;DHT22;7126;48.458;7.930;2022-10-16T16:18:24;20.40;99.90
14099;DHT22;7126;48.458;7.930;2022-10-16T16:20:52;20.40;99.90
14099;DHT22;7126;48.458;7.930;2022-10-16T16:23:18;20.30;99.90
14099;DHT22;7126;48.458;7.930;2022-10-16T16:25:45;20.30;99.90
14099;DHT22;7126;48.458;7.930;2022-10-16T16:28:10;20.20;99.90
14099;DHT22;7126;48.458;7.930;2022-10-16T16:30:40;20.10;99.90
14099;DHT22;7126;48.458;7.930;2022-10-16T16:33:06;20.10;99.90
14099;DHT22;7126;48.458;7.930;2022-10-16T16:35:32;20.00;99.90
14099;DHT22;7126;48.458;7.930;2022-10-16T16:37:57;19.90;99.90
14099;DHT22;7126;48.458;7.930;2022-10-16T16:40:23;19.90;99.90
14099;DHT22;7126;48.458;7.930;2022-10-16T16:42:49;19.80;99.90
14099;DHT22;7126;48.458;7.930;2022-10-16T16:45:14;19.80;99.90
14099;DHT22;7126;48.458;7.930;2022-10-16T16:47:40;19.70;99.90
14099;DHT22;7126;48.458;7.930;2022-10-16T16:50:06;19.60;99.90
14099;DHT22;7126;48.458;7.930;2022-10-16T16:52:33;19.60;99.90
14099;DHT22;7126;48.458;7.930;2022-10-16T16:54:58;19.50;99.90
14099;DHT22;7126;48.458;7.930;2022-10-16T16:57:24;19.50;99.90
14099;DHT22;7126;48.458;7.930;2022-10-16T16:59:50;19.40;99.90
14099;DHT22;7126;48.458;7.930;2022-10-16T17:02:17;19.40;99.90
14099;DHT22;7126;48.458;7.930;2022-10-16T17:04:42;19.30;99.90
14099;DHT22;7126;48.458;7.930;2022-10-16T17:07:08;19.30;99.90
14099;DHT22;7126;48.458;7.930;2022-10-16T17:09:34;19.20;99.90
14099;DHT22;7126;48.458;7.930;2022-10-16T17:11:59;19.20;99.90
14099;DHT22;7126;48.458;7.930;2022-10-16T17:14:25;19.10;99.90
14099;DHT22;7126;48.458;7.930;2022-10-16T17:16:51;19.10;99.90
14099;DHT22;7126;48.458;7.930;2022-10-16T17:19:18;19.10;99.90
14099;DHT22;7126;48.458;7.930;2022-10-16T17:21:45;19.10;99.90
14099;DHT22;7126;48.458;7.930;2022-10-16T17:24:12;19.10;99.90
14099;DHT22;7126;48.458;7.930;2022-10-16T17:26:38;19.10;99.90
14099;DHT22;7126;48.458;7.930;2022-10-16T17:29:06;19.10;99.90
14099;DHT22;7126;48.458;7.930;2022-10-16T17:31:34;19.10;99.90
14099;DHT22;7126;48.458;7.930;2022-10-16T17:34:02;19.00;99.90
14099;DHT22;7126;48.458;7.930;2022-10-16T17:36:30;18.90;99.90
14099;DHT22;7126;48.458;7.930;2022-10-16T17:39:05;18.90;99.90
14099;DHT22;7126;48.458;7.930;2022-10-16T17:41:32;18.90;99.90
14099;DHT22;7126;48.458;7.930;2022-10-16T17:43:58;18.80;99.90